Time;durP1;ratioP1;P1;durP2;ratioP2;P2;SDS_P1;SDS_P2;PMS_P1;PMS_P2;Temp;Humidity;BMP_temperature;BMP_pressure;BME280_temperature;BME280_humidity;BME280_pressure;Samples;Min_cycle;Max_cycle;Signal;HPM_P1;HPM_P2
2020/12/01 00:00:19;;;;;;;21.53;12.90;;;2.90;64.30;;;;;;5055313;28;20040;-62
2020/12/01 00:02:46;;;;;;;19.37;12.20;;;2.80;64.60;;;;;;5055336;28;20088;-63
2020/12/01 00:05:13;;;;;;;23.63;12.90;;;2.80;64.40;;;;;;5055114;28;20036;-62
2020/12/01 00:07:39;;;;;;;17.80;11.63;;;2.80;64.30;;;;;;5055320;28;20029;-63
2020/12/01 00:10:07;;;;;;;18.23;11.53;;;2.80;65.00;;;;;;5055192;28;20043;-62
2020/12/01 00:12:34;;;;;;;19.20;11.43;;;2.70;65.40;;;;;;5055070;28;20484;-62
2020/12/01 00:15:00;;;;;;;20.20;12.40;;;2.70;65.00;;;;;;5055105;28;20389;-62
2020/12/01 00:17:26;;;;;;;18.93;11.93;;;2.70;64.50;;;;;;5054798;28;20045;-62
2020/12/01 00:19:51;;;;;;;20.07;11.70;;;2.70;64.40;;;;;;5054928;28;20033;-62
2020/12/01 00:22:19;;;;;;;19.87;12.00;;;2.70;64.60;;;;;;5055152;28;20363;-63
2020/12/01 00:24:45;;;;;;;21.40;12.50;;;2.70;65.30;;;;;;5055077;28;20485;-62
2020/12/01 00:27:11;;;;;;;18.47;11.80;;;2.70;64.70;;;;;;5054845;28;20048;-62
2020/12/01 00:29:36;;;;;;;21.03;11.73;;;2.70;64.80;;;;;;5055068;28;20029;-62
2020/12/01 00:32:04;;;;;;;19.13;11.87;;;2.70;64.70;;;;;;5055290;28;20036;-62
2020/12/01 00:34:30;;;;;;;21.33;12.13;;;2.70;64.30;;;;;;5054886;28;20437;-62
2020/12/01 00:36:55;;;;;;;18.17;12.07;;;2.70;64.30;;;;;;5054932;28;20047;-62
2020/12/01 00:39:21;;;;;;;22.87;12.67;;;2.60;64.60;;;;;;5054776;28;20044;-62
2020/12/01 00:41:50;;;;;;;20.17;11.73;;;2.60;65.00;;;;;;5054838;28;20025;-62
2020/12/01 00:44:16;;;;;;;19.27;11.50;;;2.60;65.50;;;;;;5054654;28;20052;-62
2020/12/01 00:46:42;;;;;;;21.40;12.43;;;2.60;65.00;;;;;;5054832;28;20131;-62
2020/12/01 00:49:08;;;;;;;19.53;11.70;;;2.60;64.90;;;;;;5054247;28;20711;-62
2020/12/01 00:51:33;;;;;;;18.50;11.40;;;2.50;64.70;;;;;;5054674;28;20024;-62
2020/12/01 00:53:59;;;;;;;17.17;10.90;;;2.50;65.00;;;;;;5054308;28;20025;-62
2020/12/01 00:56:25;;;;;;;17.90;11.30;;;2.50;65.40;;;;;;5054484;28;20112;-62
2020/12/01 00:58:51;;;;;;;16.53;10.70;;;2.50;65.20;;;;;;5053999;28;20485;-62
2020/12/01 01:01:17;;;;;;;17.80;10.53;;;2.50;65.50;;;;;;5054217;28;20024;-63
2020/12/01 01:03:43;;;;;;;16.77;10.00;;;2.40;66.10;;;;;;5054263;28;20035;-62
2020/12/01 01:06:11;;;;;;;16.37;9.43;;;2.40;65.80;;;;;;5054304;28;20452;-62
2020/12/01 01:08:41;;;;;;;15.00;10.07;;;2.40;65.50;;;;;;5054077;28;20024;-62
2020/12/01 01:11:08;;;;;;;16.10;9.60;;;2.50;65.10;;;;;;5054204;28;20673;-63
2020/12/01 01:13:35;;;;;;;15.23;8.57;;;2.50;65.40;;;;;;5053841;28;20025;-63
2020/12/01 01:16:01;;;;;;;13.93;8.67;;;2.40;65.70;;;;;;5053965;28;20132;-63
2020/12/01 01:18:26;;;;;;;13.33;8.47;;;2.50;65.80;;;;;;5054057;28;20132;-62
2020/12/01 01:20:52;;;;;;;13.47;9.00;;;2.40;65.70;;;;;;5053924;28;20056;-63
2020/12/01 01:23:18;;;;;;;14.37;8.43;;;2.40;65.60;;;;;;5053986;28;20096;-63
2020/12/01 01:25:44;;;;;;;13.93;9.00;;;2.50;65.90;;;;;;5053702;28;20044;-63
2020/12/01 01:28:10;;;;;;;13.50;8.17;;;2.50;65.30;;;;;;5053800;28;20542;-62
2020/12/01 01:30:39;;;;;;;13.63;8.53;;;2.50;64.90;;;;;;5053570;28;20028;-63
2020/12/01 01:33:05;;;;;;;13.27;8.67;;;2.40;64.50;;;;;;5053524;28;20067;-62
2020/12/01 01:35:34;;;;;;;15.80;9.70;;;2.40;64.60;;;;;;5053452;28;20028;-63
2020/12/01 01:38:02;;;;;;;14.27;7.97;;;2.40;64.50;;;;;;5053662;28;20078;-63
2020/12/01 01:40:30;;;;;;;12.27;8.33;;;2.40;65.30;;;;;;5053762;28;20024;-62
2020/12/01 01:42:57;;;;;;;13.83;8.60;;;2.40;66.00;;;;;;5053545;28;20110;-63
2020/12/01 01:45:35;;;;;;;14.50;9.60;;;2.40;65.10;;;;;;5053380;28;20107;-63
2020/12/01 01:48:02;;;;;;;17.67;10.53;;;2.40;64.80;;;;;;5053358;28;20029;-63
2020/12/01 01:50:29;;;;;;;16.80;9.77;;;2.40;64.60;;;;;;5053696;28;20382;-62
2020/12/01 01:52:55;;;;;;;15.73;10.27;;;2.40;65.40;;;;;;5053309;28;20028;-63
2020/12/01 01:55:25;;;;;;;17.50;10.20;;;2.40;65.60;;;;;;5053305;28;20052;-62
2020/12/01 01:58:01;;;;;;;16.23;9.60;;;2.40;65.50;;;;;;5051865;28;20497;-63
2020/12/01 02:00:43;;;;;;;16.37;9.23;;;2.40;65.80;;;;;;5050606;28;20017;-63
2020/12/01 02:03:10;;;;;;;14.00;9.13;;;2.40;65.90;;;;;;5050659;28;20111;-63
2020/12/01 02:05:35;;;;;;;12.90;8.30;;;2.40;65.70;;;;;;5052342;28;20021;-62
2020/12/01 02:08:01;;;;;;;13.00;8.40;;;2.40;65.60;;;;;;5053782;28;20486;-63
2020/12/01 02:10:28;;;;;;;13.87;8.33;;;2.40;65.10;;;;;;5053356;28;20076;-62
2020/12/01 02:12:59;;;;;;;15.17;9.17;;;2.40;65.50;;;;;;5052769;28;20029;-63
2020/12/01 02:15:25;;;;;;;17.00;8.97;;;2.40;65.00;;;;;;5052656;28;20055;-63
2020/12/01 02:17:51;;;;;;;13.37;9.27;;;2.40;64.80;;;;;;5052765;28;20053;-63
2020/12/01 02:20:19;;;;;;;13.27;8.37;;;2.30;65.20;;;;;;5052875;28;20053;-63
2020/12/01 02:22:51;;;;;;;13.63;8.47;;;2.30;66.10;;;;;;5052942;28;20059;-63
2020/12/01 02:25:19;;;;;;;15.77;8.50;;;2.30;65.40;;;;;;5052654;28;20065;-63
2020/12/01 02:27:56;;;;;;;13.73;8.80;;;2.30;65.50;;;;;;5052561;28;20079;-63
2020/12/01 02:30:22;;;;;;;17.80;8.10;;;2.30;65.30;;;;;;5052900;28;20389;-63
2020/12/01 02:32:48;;;;;;;13.17;7.57;;;2.20;65.40;;;;;;5052635;28;20032;-63
2020/12/01 02:35:14;;;;;;;13.27;8.10;;;2.20;66.00;;;;;;5052298;28;20025;-63
2020/12/01 02:37:42;;;;;;;10.40;7.10;;;2.20;65.40;;;;;;5052512;28;20037;-62
2020/12/01 02:40:11;;;;;;;11.80;7.20;;;2.20;64.80;;;;;;5052762;28;20108;-63
2020/12/01 02:42:37;;;;;;;11.97;7.20;;;2.20;65.00;;;;;;5052560;28;20021;-62
2020/12/01 02:45:05;;;;;;;12.17;6.43;;;2.20;65.10;;;;;;5052683;28;20104;-62
2020/12/01 02:47:31;;;;;;;9.13;6.33;;;2.20;65.10;;;;;;5052494;28;20036;-63
2020/12/01 02:49:56;;;;;;;8.73;6.57;;;2.20;65.00;;;;;;5052371;28;20029;-63
2020/12/01 02:52:23;;;;;;;10.73;5.70;;;2.20;64.80;;;;;;5053040;28;20116;-62
2020/12/01 02:54:50;;;;;;;9.23;6.40;;;2.20;64.70;;;;;;5052621;28;20033;-62
2020/12/01 02:57:18;;;;;;;8.57;5.93;;;2.20;65.10;;;;;;5052825;28;20086;-62
2020/12/01 02:59:43;;;;;;;9.50;6.00;;;2.20;65.40;;;;;;5052570;28;20398;-62
2020/12/01 03:02:09;;;;;;;10.57;6.70;;;2.30;64.80;;;;;;5052519;28;20024;-62
2020/12/01 03:04:35;;;;;;;10.20;5.90;;;2.30;64.40;;;;;;5052576;28;20033;-62
2020/12/01 03:07:00;;;;;;;11.70;6.17;;;2.30;64.90;;;;;;5052673;28;20484;-63
2020/12/01 03:09:26;;;;;;;11.40;6.33;;;2.30;64.10;;;;;;5052630;28;20053;-62
2020/12/01 03:11:52;;;;;;;10.50;6.03;;;2.20;64.90;;;;;;5052627;28;20037;-63
2020/12/01 03:14:19;;;;;;;10.20;6.50;;;2.20;64.10;;;;;;5052309;28;20029;-62
2020/12/01 03:16:49;;;;;;;10.63;6.90;;;2.20;63.90;;;;;;5052404;28;20028;-62
2020/12/01 03:19:15;;;;;;;10.17;6.60;;;2.20;63.60;;;;;;5052254;28;20045;-62
2020/12/01 03:21:41;;;;;;;9.77;6.50;;;2.10;63.70;;;;;;5054327;28;20024;-62
2020/12/01 03:24:06;;;;;;;9.90;6.87;;;2.10;64.00;;;;;;5056131;28;20025;-62
2020/12/01 03:26:32;;;;;;;11.63;6.57;;;2.00;64.40;;;;;;5056047;28;20013;-62
2020/12/01 03:28:58;;;;;;;10.73;6.53;;;2.00;64.70;;;;;;5056160;28;20544;-62
2020/12/01 03:31:23;;;;;;;11.07;6.90;;;2.00;64.70;;;;;;5056192;28;20029;-62
2020/12/01 03:33:49;;;;;;;12.60;6.57;;;1.90;64.70;;;;;;5055870;28;20470;-62
2020/12/01 03:36:17;;;;;;;10.87;7.10;;;1.90;64.90;;;;;;5055749;28;20060;-63
2020/12/01 03:38:43;;;;;;;9.77;6.57;;;1.90;65.10;;;;;;5055486;28;20044;-63
2020/12/01 03:41:09;;;;;;;10.57;6.70;;;1.90;65.20;;;;;;5055425;28;20025;-62
2020/12/01 03:43:35;;;;;;;9.00;6.40;;;1.90;65.10;;;;;;5055541;28;20579;-63
2020/12/01 03:46:02;;;;;;;10.43;6.93;;;1.90;65.00;;;;;;5055708;28;20033;-63
2020/12/01 03:48:27;;;;;;;8.83;6.20;;;1.80;65.00;;;;;;5055781;28;20381;-63
2020/12/01 03:50:53;;;;;;;9.17;6.07;;;1.80;65.10;;;;;;5055647;28;20025;-63
2020/12/01 03:53:19;;;;;;;9.43;6.40;;;1.80;65.10;;;;;;5055907;28;20496;-62
2020/12/01 03:55:44;;;;;;;12.10;6.57;;;1.80;65.20;;;;;;5055706;28;20033;-63
2020/12/01 03:58:10;;;;;;;10.03;6.33;;;1.70;66.60;;;;;;5055604;28;20080;-62
2020/12/01 04:00:36;;;;;;;10.40;6.07;;;1.70;65.80;;;;;;5055529;28;20017;-62
2020/12/01 04:03:01;;;;;;;8.37;6.10;;;1.70;65.90;;;;;;5055386;28;20386;-62
2020/12/01 04:05:28;;;;;;;8.87;5.47;;;1.70;66.10;;;;;;5055215;28;20025;-62
2020/12/01 04:07:55;;;;;;;8.90;5.93;;;1.70;66.40;;;;;;5055192;28;20021;-62
2020/12/01 04:10:24;;;;;;;9.20;6.30;;;1.60;66.90;;;;;;5055363;28;20041;-62
2020/12/01 04:12:50;;;;;;;9.27;5.93;;;1.60;67.10;;;;;;5055329;28;20029;-63
2020/12/01 04:15:19;;;;;;;13.20;6.10;;;1.70;67.30;;;;;;5055068;28;20033;-62
2020/12/01 04:17:45;;;;;;;8.90;5.80;;;1.70;67.40;;;;;;5054903;28;20048;-63
2020/12/01 04:20:12;;;;;;;10.13;6.20;;;1.70;66.80;;;;;;5054856;28;20593;-63
2020/12/01 04:22:38;;;;;;;10.60;5.87;;;1.60;66.50;;;;;;5055126;28;20074;-62
2020/12/01 04:25:08;;;;;;;10.53;6.10;;;1.60;67.00;;;;;;5055055;28;20388;-62
2020/12/01 04:27:34;;;;;;;11.67;6.20;;;1.60;66.50;;;;;;5054999;28;20036;-62
2020/12/01 04:30:00;;;;;;;10.33;6.43;;;1.60;66.60;;;;;;5054909;28;20051;-62
2020/12/01 04:32:26;;;;;;;10.57;6.80;;;1.60;66.70;;;;;;5054384;28;20075;-63
2020/12/01 04:34:52;;;;;;;9.83;6.00;;;1.60;66.30;;;;;;5054717;28;20029;-62
2020/12/01 04:37:17;;;;;;;9.70;5.97;;;1.60;66.10;;;;;;5054865;28;20032;-63
2020/12/01 04:39:43;;;;;;;10.27;5.90;;;1.60;65.90;;;;;;5054207;28;20482;-63
2020/12/01 04:42:16;;;;;;;9.23;5.53;;;1.60;65.60;;;;;;5054640;28;20025;-63
2020/12/01 04:45:04;;;;;;;9.50;5.38;;;1.50;66.20;;;;;;5054496;28;20053;-62
2020/12/01 04:47:45;;;;;;;7.30;5.07;;;1.50;66.80;;;;;;5054619;28;20096;-62
2020/12/01 04:50:19;;;;;;;10.50;5.67;;;1.50;66.40;;;;;;5054319;28;20389;-62
2020/12/01 04:53:18;;;;;;;8.83;5.23;;;1.50;65.80;;;;;;5054461;28;20029;-62
2020/12/01 04:56:08;;;;;;;9.50;5.53;;;1.60;66.10;;;;;;5054426;28;20021;-62
2020/12/01 04:58:48;;;;;;;9.73;5.17;;;1.60;65.60;;;;;;5054129;28;20116;-62
2020/12/01 05:01:35;;;;;;;10.03;5.40;;;1.60;65.60;;;;;;5054373;28;20611;-62
2020/12/01 05:04:35;;;;;;;9.13;5.43;;;1.60;66.40;;;;;;5054334;28;20040;-62
2020/12/01 05:07:18;;;;;;;9.33;5.53;;;1.60;66.10;;;;;;5054258;28;20025;-63
2020/12/01 05:09:46;;;;;;;7.47;5.32;;;1.60;66.20;;;;;;5053944;28;20123;-63
2020/12/01 05:12:15;;;;;;;8.93;5.07;;;1.70;66.10;;;;;;5053872;28;20063;-62
2020/12/01 05:14:53;;;;;;;10.97;5.10;;;1.70;66.30;;;;;;5054096;28;20025;-62
2020/12/01 05:17:56;;;;;;;8.47;5.83;;;1.70;66.00;;;;;;5053977;28;20489;-62
2020/12/01 05:20:23;;;;;;;7.80;5.50;;;1.70;66.00;;;;;;5054347;28;20063;-63
2020/12/01 05:22:55;;;;;;;10.13;5.30;;;1.70;65.50;;;;;;5054080;28;20036;-62
2020/12/01 05:25:32;;;;;;;9.95;5.72;;;1.70;65.60;;;;;;5054242;28;20036;-62
2020/12/01 05:28:14;;;;;;;8.00;5.47;;;1.80;66.60;;;;;;5054086;28;20540;-62
2020/12/01 05:30:41;;;;;;;8.40;5.17;;;1.80;65.90;;;;;;5053909;28;20026;-62
2020/12/01 05:33:23;;;;;;;9.60;6.03;;;1.80;65.50;;;;;;5053502;28;20024;-62
2020/12/01 05:35:58;;;;;;;9.43;6.70;;;1.80;65.30;;;;;;5053856;28;20032;-62
2020/12/01 05:38:24;;;;;;;10.53;5.60;;;1.90;65.10;;;;;;5053372;28;20291;-62
2020/12/01 05:40:59;;;;;;;13.60;7.00;;;1.90;64.90;;;;;;5053776;28;20040;-62
2020/12/01 05:43:32;;;;;;;10.93;6.93;;;1.90;64.80;;;;;;5052730;28;20021;-62
2020/12/01 05:46:16;;;;;;;10.07;6.50;;;2.00;64.80;;;;;;5053526;28;20393;-62
2020/12/01 05:49:19;;;;;;;9.73;7.10;;;2.00;64.60;;;;;;5053566;28;20024;-62
2020/12/01 05:51:48;;;;;;;10.93;6.53;;;2.00;64.20;;;;;;5053482;28;20032;-62
2020/12/01 05:54:17;;;;;;;9.73;6.63;;;2.10;64.50;;;;;;5053493;28;20017;-62
2020/12/01 05:56:53;;;;;;;10.47;6.30;;;2.10;64.40;;;;;;5053363;28;20029;-62
2020/12/01 05:59:24;;;;;;;13.00;7.03;;;2.10;64.30;;;;;;5053286;28;20033;-62
2020/12/01 06:01:57;;;;;;;10.93;6.63;;;2.10;64.20;;;;;;5053475;28;20025;-62
2020/12/01 06:04:25;;;;;;;11.35;6.45;;;2.10;63.90;;;;;;5053254;28;20021;-62
2020/12/01 06:07:00;;;;;;;11.67;6.63;;;2.20;63.90;;;;;;5053179;28;20048;-62
2020/12/01 06:09:45;;;;;;;9.47;6.27;;;2.20;63.90;;;;;;5053151;28;20129;-62
2020/12/01 06:12:33;;;;;;;9.53;6.90;;;2.20;63.70;;;;;;5053143;28;20433;-62
2020/12/01 06:15:08;;;;;;;14.63;7.20;;;2.20;63.70;;;;;;5052939;28;20029;-62
2020/12/01 06:17:47;;;;;;;12.23;7.33;;;2.20;63.50;;;;;;5052938;28;20080;-62
2020/12/01 06:20:15;;;;;;;10.77;7.40;;;2.20;63.40;;;;;;5052921;28;20029;-62
2020/12/01 06:22:41;;;;;;;9.87;6.73;;;2.20;63.30;;;;;;5053093;28;20032;-62
2020/12/01 06:25:40;;;;;;;11.13;7.27;;;2.30;63.40;;;;;;5052892;28;20029;-62
2020/12/01 06:28:33;;;;;;;10.20;7.03;;;2.20;63.60;;;;;;5052821;28;20083;-62
2020/12/01 06:31:55;;;;;;;11.40;7.45;;;2.30;63.80;;;;;;5052192;28;20029;-62
2020/12/01 06:34:38;;;;;;;12.10;7.40;;;2.20;63.50;;;;;;5050521;28;20449;-62
2020/12/01 06:37:12;;;;;;;13.80;7.27;;;2.20;63.70;;;;;;5052558;28;20338;-62
2020/12/01 06:40:19;;;;;;;12.13;7.60;;;2.20;63.50;;;;;;5052912;28;20151;-62
2020/12/01 06:42:52;;;;;;;12.03;7.37;;;2.20;63.70;;;;;;5052343;28;20064;-62
2020/12/01 06:45:30;;;;;;;13.60;7.82;;;2.20;63.70;;;;;;5052681;28;20425;-62
2020/12/01 06:48:06;;;;;;;14.23;7.27;;;2.20;63.60;;;;;;5052618;28;20116;-62
2020/12/01 06:50:35;;;;;;;10.53;6.70;;;2.30;63.40;;;;;;5052739;28;20109;-62
2020/12/01 06:53:05;;;;;;;14.63;7.60;;;2.30;63.20;;;;;;5052730;28;20060;-62
2020/12/01 06:55:43;;;;;;;13.27;7.97;;;2.30;63.40;;;;;;5053918;28;20501;-62
2020/12/01 06:58:29;;;;;;;12.63;7.07;;;2.30;63.30;;;;;;5056527;28;20032;-62
2020/12/01 07:01:22;;;;;;;11.87;7.60;;;2.30;63.20;;;;;;5056204;28;20048;-63
2020/12/01 07:04:08;;;;;;;13.82;7.50;;;2.40;62.90;;;;;;5056426;28;20029;-62
2020/12/01 07:06:48;;;;;;;12.40;8.07;;;2.40;62.50;;;;;;5056596;28;20029;-62
2020/12/01 07:09:20;;;;;;;10.13;6.93;;;2.40;62.50;;;;;;5056610;28;20052;-62
2020/12/01 07:11:57;;;;;;;13.63;7.47;;;2.50;62.50;;;;;;5056325;28;20036;-62
2020/12/01 07:14:41;;;;;;;15.53;8.10;;;2.50;62.20;;;;;;5056443;28;20031;-62
2020/12/01 07:17:26;;;;;;;12.10;8.00;;;2.50;62.30;;;;;;5056134;28;20040;-62
2020/12/01 07:20:06;;;;;;;16.80;7.97;;;2.60;62.40;;;;;;5055978;28;20489;-72
2020/12/01 07:22:48;;;;;;;12.80;8.10;;;2.60;62.40;;;;;;5056112;28;20025;-62
2020/12/01 07:25:21;;;;;;;12.43;7.90;;;2.60;62.10;;;;;;5056065;28;20037;-62
2020/12/01 07:28:18;;;;;;;14.10;6.67;;;2.60;62.00;;;;;;5056346;28;20047;-63
2020/12/01 07:31:00;;;;;;;18.83;6.93;;;2.70;61.80;;;;;;5055690;28;20056;-62
2020/12/01 07:33:30;;;;;;;13.38;6.85;;;2.70;61.60;;;;;;5055902;28;20421;-62
2020/12/01 07:36:22;;;;;;;13.70;7.70;;;2.80;61.50;;;;;;5056059;28;20036;-62
2020/12/01 07:38:48;;;;;;;17.53;8.37;;;2.90;61.30;;;;;;5055723;28;20094;-62
2020/12/01 07:41:22;;;;;;;12.00;8.00;;;2.90;61.00;;;;;;5055848;28;20028;-62
2020/12/01 07:43:58;;;;;;;12.33;8.03;;;3.00;61.20;;;;;;5056009;28;20044;-62
2020/12/01 07:46:24;;;;;;;9.70;6.93;;;3.00;61.10;;;;;;5055742;28;20036;-62
2020/12/01 07:49:01;;;;;;;11.13;7.33;;;3.00;61.10;;;;;;5055918;28;20018;-62
2020/12/01 07:51:29;;;;;;;11.07;7.30;;;3.10;61.00;;;;;;5055688;28;20032;-62
2020/12/01 07:53:58;;;;;;;11.67;7.37;;;3.10;60.90;;;;;;5055448;28;20504;-62
2020/12/01 07:56:27;;;;;;;14.37;8.37;;;3.20;60.70;;;;;;5055485;28;20116;-61
2020/12/01 07:59:09;;;;;;;23.60;8.47;;;3.20;60.60;;;;;;5055337;28;20086;-61
2020/12/01 08:01:35;;;;;;;29.33;7.73;;;3.30;60.60;;;;;;5055412;28;20029;-62
2020/12/01 08:04:05;;;;;;;27.60;7.63;;;3.30;60.30;;;;;;5055332;28;20393;-63
2020/12/01 08:06:31;;;;;;;14.50;7.23;;;3.40;60.10;;;;;;5051554;28;20516;-64
2020/12/01 08:08:56;;;;;;;11.67;6.97;;;3.40;60.10;;;;;;5052482;28;20021;-64
2020/12/01 08:11:23;;;;;;;17.10;7.43;;;3.40;60.20;;;;;;5053373;28;20103;-65
2020/12/01 08:13:54;;;;;;;11.07;7.87;;;3.40;60.10;;;;;;5055051;28;20036;-64
2020/12/01 08:16:27;;;;;;;10.13;7.13;;;3.50;59.90;;;;;;5055099;28;20446;-64
2020/12/01 08:18:53;;;;;;;13.63;7.80;;;3.50;59.60;;;;;;5054990;28;20500;-65
2020/12/01 08:21:22;;;;;;;11.50;7.50;;;3.60;59.50;;;;;;5054852;28;20031;-68
2020/12/01 08:23:52;;;;;;;14.93;7.97;;;3.60;59.40;;;;;;5054907;28;20040;-64
2020/12/01 08:26:28;;;;;;;12.20;7.70;;;3.70;59.60;;;;;;5055049;28;20021;-64
2020/12/01 08:29:16;;;;;;;10.77;7.43;;;3.70;59.50;;;;;;5052758;28;20410;-64
2020/12/01 08:32:29;;;;;;;12.80;7.87;;;3.80;59.20;;;;;;5052195;28;20035;-64
2020/12/01 08:35:18;;;;;;;15.43;7.68;;;3.90;59.10;;;;;;5043998;28;20056;-64
2020/12/01 08:38:05;;;;;;;14.17;8.13;;;4.00;59.20;;;;;;5039539;28;20451;-65
2020/12/01 08:41:03;;;;;;;11.93;7.90;;;4.10;59.10;;;;;;5042776;28;20481;-63
2020/12/01 08:43:48;;;;;;;13.50;7.47;;;4.20;58.90;;;;;;5042129;28;20029;-64
2020/12/01 08:46:20;;;;;;;13.43;7.37;;;4.30;58.70;;;;;;5045235;28;20079;-73
2020/12/01 08:49:05;;;;;;;17.17;8.18;;;4.40;58.50;;;;;;5043177;28;20056;-74
2020/12/01 08:51:33;;;;;;;9.50;6.90;;;4.50;58.10;;;;;;5042444;28;20462;-64
2020/12/01 08:54:14;;;;;;;12.10;7.07;;;4.70;57.70;;;;;;5041709;28;20032;-64
2020/12/01 08:57:08;;;;;;;11.70;7.80;;;4.80;57.60;;;;;;5040732;28;20032;-65
2020/12/01 09:00:03;;;;;;;13.37;7.80;;;4.90;57.20;;;;;;5043098;28;20083;-64
2020/12/01 09:02:37;;;;;;;12.63;7.97;;;5.00;57.00;;;;;;5053419;28;20037;-64
2020/12/01 09:05:04;;;;;;;12.43;7.67;;;5.10;56.40;;;;;;5052841;28;20104;-64
2020/12/01 09:07:36;;;;;;;21.50;7.27;;;5.20;56.40;;;;;;5053610;28;20485;-64
2020/12/01 09:10:18;;;;;;;12.00;8.27;;;5.20;56.30;;;;;;5053702;28;20025;-64
2020/12/01 09:12:55;;;;;;;12.23;7.90;;;5.30;55.90;;;;;;5053810;28;20378;-64
2020/12/01 09:16:00;;;;;;;10.80;7.53;;;5.40;55.50;;;;;;5035492;28;20478;-65
2020/12/01 09:23:26;;;;;;;12.13;7.67;;;5.70;55.60;;;;;;5053988;28;20108;-64
2020/12/01 09:25:54;;;;;;;13.73;8.27;;;5.80;55.30;;;;;;5053759;28;20466;-64
2020/12/01 09:28:23;;;;;;;14.33;8.30;;;5.90;55.00;;;;;;5053795;28;20024;-65
2020/12/01 09:30:49;;;;;;;12.73;8.13;;;6.00;55.10;;;;;;5053993;28;20025;-64
2020/12/01 09:33:22;;;;;;;11.80;7.90;;;6.00;54.90;;;;;;5053782;28;20381;-64
2020/12/01 09:35:49;;;;;;;16.07;8.50;;;6.20;54.90;;;;;;5053361;28;20028;-64
2020/12/01 09:38:16;;;;;;;11.83;8.37;;;6.20;54.50;;;;;;5053866;28;20037;-64
2020/12/01 09:40:42;;;;;;;12.40;8.27;;;6.30;54.80;;;;;;5053602;28;20036;-64
2020/12/01 09:45:45;;;;;;;11.27;8.20;;;6.50;53.60;;;;;;5053947;28;20029;-65
2020/12/01 09:50:39;;;;;;;11.13;7.90;;;6.60;52.70;;;;;;5052448;28;20029;-65
2020/12/01 09:55:53;;;;;;;13.07;7.90;;;6.70;52.90;;;;;;5053069;28;20489;-64
2020/12/01 10:08:37;;;;;;;13.03;8.37;;;7.20;52.00;;;;;;5053597;28;20116;-64
2020/12/01 10:11:23;;;;;;;11.10;8.30;;;7.30;51.30;;;;;;5053261;28;20021;-64
2020/12/01 10:15:08;;;;;;;11.43;7.60;;;7.40;50.50;;;;;;5053115;28;20036;-65
2020/12/01 10:35:38;;;;;;;11.73;8.23;;;7.70;49.60;;;;;;5052887;28;20068;-64
2020/12/01 10:38:04;;;;;;;10.90;8.63;;;7.80;49.90;;;;;;5053001;28;20061;-64
2020/12/01 10:40:30;;;;;;;11.67;8.53;;;7.90;49.20;;;;;;5053069;28;20108;-64
2020/12/01 10:42:57;;;;;;;13.20;8.77;;;8.00;49.20;;;;;;5053136;28;20059;-64
2020/12/01 10:45:25;;;;;;;13.77;9.70;;;8.00;48.70;;;;;;5052831;28;20021;-64
2020/12/01 10:47:51;;;;;;;14.07;9.60;;;8.10;48.90;;;;;;5052700;28;20047;-65
2020/12/01 10:50:23;;;;;;;12.60;9.83;;;8.20;49.10;;;;;;5053041;28;20021;-64
2020/12/01 10:52:48;;;;;;;12.10;9.57;;;8.30;48.40;;;;;;5052964;28;20100;-64
2020/12/01 10:55:21;;;;;;;12.90;9.17;;;8.40;48.10;;;;;;5052710;28;20442;-64
2020/12/01 10:57:47;;;;;;;;;;;8.40;47.50;;;;;;5053041;28;20033;-65
2020/12/01 11:00:12;;;;;;;13.17;9.90;;;8.40;46.90;;;;;;5052541;28;19911;-64
2020/12/01 11:02:38;;;;;;;11.83;9.67;;;8.50;47.00;;;;;;5052893;28;20029;-64
2020/12/01 11:05:11;;;;;;;11.17;9.43;;;8.50;46.80;;;;;;5052841;28;20029;-64
2020/12/01 11:07:37;;;;;;;12.03;9.70;;;8.50;46.60;;;;;;5052787;28;20169;-64
2020/12/01 11:10:03;;;;;;;15.50;10.20;;;8.50;46.20;;;;;;5052825;28;20033;-64
2020/12/01 11:12:29;;;;;;;14.17;10.40;;;8.50;46.50;;;;;;5052631;28;20029;-65
2020/12/01 11:14:55;;;;;;;15.13;9.70;;;8.50;47.00;;;;;;5052516;28;20028;-64
2020/12/01 11:17:20;;;;;;;16.30;11.00;;;8.60;46.80;;;;;;5052598;28;20128;-64
2020/12/01 11:19:46;;;;;;;15.43;10.83;;;8.60;46.90;;;;;;5052645;28;20435;-64
2020/12/01 11:22:13;;;;;;;14.63;11.27;;;8.60;47.30;;;;;;5052560;28;20098;-64
2020/12/01 11:24:39;;;;;;;15.00;10.83;;;8.70;47.30;;;;;;5052726;28;20393;-64
2020/12/01 11:27:06;;;;;;;14.53;11.47;;;8.80;47.20;;;;;;5052698;28;20470;-64
2020/12/01 11:29:32;;;;;;;15.13;12.07;;;8.80;46.80;;;;;;5052816;28;20025;-64
2020/12/01 11:31:57;;;;;;;18.53;11.80;;;8.70;46.10;;;;;;5052890;28;20029;-64
2020/12/01 11:34:23;;;;;;;15.40;11.23;;;8.70;46.70;;;;;;5052525;28;20029;-64
2020/12/01 11:36:49;;;;;;;16.27;11.67;;;8.80;46.40;;;;;;5052301;28;20028;-64
2020/12/01 11:39:15;;;;;;;14.47;10.87;;;8.70;46.40;;;;;;5052673;28;20112;-64
2020/12/01 11:41:41;;;;;;;14.43;11.37;;;8.70;46.80;;;;;;5052783;28;20022;-64
2020/12/01 11:44:07;;;;;;;16.10;11.70;;;8.80;47.00;;;;;;5055846;28;20438;-65
2020/12/01 11:46:33;;;;;;;14.27;11.17;;;8.80;47.10;;;;;;5055896;28;20060;-64
2020/12/01 11:49:02;;;;;;;15.90;11.70;;;8.80;46.40;;;;;;5055621;28;20028;-64
2020/12/01 11:51:32;;;;;;;16.73;11.70;;;8.80;46.20;;;;;;5055766;28;20105;-65
2020/12/01 11:53:58;;;;;;;15.97;11.23;;;8.80;46.20;;;;;;5055930;28;20024;-64
2020/12/01 11:56:24;;;;;;;14.70;11.37;;;8.70;46.60;;;;;;5055832;28;20036;-64
2020/12/01 11:58:50;;;;;;;15.97;10.80;;;8.70;46.70;;;;;;5055074;28;20098;-65
2020/12/01 12:01:17;;;;;;;12.93;10.50;;;8.70;46.80;;;;;;5055466;28;20028;-65
2020/12/01 12:03:43;;;;;;;15.40;11.07;;;8.70;46.10;;;;;;5055359;28;20047;-64
2020/12/01 12:06:09;;;;;;;17.27;10.43;;;8.60;46.40;;;;;;5055357;28;20474;-63
2020/12/01 12:08:35;;;;;;;17.10;11.70;;;8.60;46.80;;;;;;5055441;28;20131;-72
2020/12/01 12:11:01;;;;;;;14.37;12.07;;;8.60;46.30;;;;;;5054070;28;20525;-64
2020/12/01 12:13:39;;;;;;;14.57;11.20;;;8.60;47.10;;;;;;5054380;28;20420;-64
2020/12/01 12:16:05;;;;;;;16.50;11.03;;;8.50;46.80;;;;;;5055175;28;20496;-64
2020/12/01 12:18:31;;;;;;;13.77;10.80;;;8.60;46.60;;;;;;5055150;28;20064;-64
2020/12/01 12:20:57;;;;;;;16.93;11.37;;;8.50;46.80;;;;;;5055250;28;20025;-72
2020/12/01 12:23:26;;;;;;;15.73;11.03;;;8.50;47.20;;;;;;5055403;28;20108;-64
2020/12/01 12:25:55;;;;;;;14.90;10.83;;;8.50;47.70;;;;;;5054806;28;20500;-64
2020/12/01 12:28:25;;;;;;;12.93;10.30;;;8.50;46.90;;;;;;5055187;28;20033;-64
2020/12/01 12:30:53;;;;;;;16.47;11.70;;;8.50;46.90;;;;;;5055123;28;20111;-64
2020/12/01 12:33:20;;;;;;;14.13;10.67;;;8.50;47.20;;;;;;5055011;28;20028;-64
2020/12/01 12:35:46;;;;;;;16.90;11.93;;;8.40;47.30;;;;;;5054579;28;20053;-64
2020/12/01 12:38:12;;;;;;;15.97;10.73;;;8.40;47.40;;;;;;5054941;28;20064;-64
2020/12/01 12:40:38;;;;;;;20.20;10.73;;;8.40;47.60;;;;;;5054923;28;20029;-64
2020/12/01 12:43:03;;;;;;;17.93;10.57;;;8.40;47.20;;;;;;5055009;28;20025;-64
2020/12/01 12:45:30;;;;;;;15.57;10.93;;;8.30;47.40;;;;;;5054454;28;20047;-64
2020/12/01 12:47:57;;;;;;;12.97;10.03;;;8.30;47.90;;;;;;5054932;28;20021;-64
2020/12/01 12:50:23;;;;;;;12.80;10.33;;;8.30;47.80;;;;;;5054861;28;20025;-63
2020/12/01 12:52:49;;;;;;;15.90;11.03;;;8.20;47.40;;;;;;5054273;28;20427;-62
2020/12/01 12:55:15;;;;;;;16.23;10.80;;;8.20;47.60;;;;;;5054544;28;20053;-63
2020/12/01 12:57:41;;;;;;;13.53;10.50;;;8.10;47.80;;;;;;5054582;28;20490;-63
2020/12/01 13:00:07;;;;;;;14.70;11.07;;;8.10;48.00;;;;;;5054445;28;20041;-63
2020/12/01 13:02:33;;;;;;;15.73;11.77;;;8.00;48.00;;;;;;5045564;28;20021;-63
2020/12/01 13:05:04;;;;;;;15.97;11.80;;;8.00;47.90;;;;;;5044349;28;20489;-63
2020/12/01 13:07:39;;;;;;;16.37;11.17;;;8.00;48.30;;;;;;5044414;28;20028;-63
2020/12/01 13:10:08;;;;;;;16.87;12.07;;;8.00;48.10;;;;;;5042104;28;20045;-63
2020/12/01 13:12:36;;;;;;;14.67;11.60;;;7.90;48.30;;;;;;5044542;28;20367;-63
2020/12/01 13:15:03;;;;;;;17.83;11.00;;;7.80;48.20;;;;;;5042793;28;20023;-64
2020/12/01 13:17:29;;;;;;;17.30;12.13;;;7.90;48.40;;;;;;5043102;28;20045;-64
2020/12/01 13:19:54;;;;;;;18.43;11.33;;;7.80;48.50;;;;;;5044301;28;20497;-64
2020/12/01 13:22:20;;;;;;;16.77;12.27;;;7.70;48.80;;;;;;5042612;28;20482;-64
2020/12/01 13:24:46;;;;;;;16.37;12.40;;;7.70;48.80;;;;;;5046965;28;20114;-64
2020/12/01 13:27:12;;;;;;;16.00;13.00;;;7.70;48.90;;;;;;5049670;28;20017;-63
2020/12/01 13:29:38;;;;;;;19.80;13.10;;;7.70;49.20;;;;;;5052114;28;20426;-63
2020/12/01 13:32:04;;;;;;;19.90;13.17;;;7.60;49.10;;;;;;5046322;28;20104;-63
2020/12/01 13:34:30;;;;;;;16.97;12.77;;;7.60;48.90;;;;;;5042189;28;20029;-64
2020/12/01 13:36:59;;;;;;;17.13;12.23;;;7.50;48.90;;;;;;5050105;28;20021;-63
2020/12/01 13:39:26;;;;;;;17.60;12.97;;;7.30;49.00;;;;;;5039852;28;20073;-63
2020/12/01 13:42:00;;;;;;;17.77;12.60;;;7.30;49.20;;;;;;5033701;28;20064;-63
2020/12/01 13:44:26;;;;;;;15.67;13.10;;;7.20;49.40;;;;;;5033497;28;20034;-69
2020/12/01 13:46:55;;;;;;;20.50;13.67;;;7.10;49.70;;;;;;5052341;28;20027;-65